x

Bodega Bay - 48nm Nnw Of San Francisco, Ca (46013) Wave Buoy

6:50am - Sat 26th Jul 2014 All times are PDT. -7 hours from GMT.

  • Sig Wave height 5.9ft
  • Peak Period 8s
  • Average Period 6s
  • Wind
    18mph, 20mph gusts
  • Sea Temp 59°f
  • Air Temp 56°f
  • Sea Pressure 1012.8mb
  • Bodega Bay - 48nm Nnw Of San Francisco, Ca
  • Bodega Bay - 48nm Nnw Of San Francisco, Ca

More Historic Weather Station data

Upgrade to MSW Pro to gain access to the past 30 days of data for over 8000 Wavebouys and Weather Stations around the globe.

Join Pro

Comparision Forecast

View Surf forecast
   
Sat 07/26 6:50am 6ft 8s 6s 18 20 mph 1012.8mb 59f 56f
5:50am 6ft 8s 6s 20 22 mph 1012.3mb 59f 56f
4:50am 6ft 8s 6s 20 25 mph 1011.8mb 59f 56f
3:50am 7ft 8s 6s 20 22 mph 1011.8mb 59f 56f
2:50am 6.5ft 6s 6s 20 25 mph 1011.5mb 59f 57f
1:50am 7ft 9s 6s 20 25 mph 1011.8mb 59f 58f
12:50am 7ft 9s 6s 20 27 mph 1011.6mb 59f 58f
Fri 07/25 11:50pm 7ft 9s 6s 22 27 mph 1011.4mb 59f 58f
10:50pm 7ft 9s 6s 25 27 mph 1011.3mb 59f 58f
9:50pm 7ft 6s 6s 27 31 mph 1011.1mb 59f 58f
8:50pm 7ft 6s 6s 27 34 mph 1010.2mb 59f 59f
7:50pm 7ft 9s 6s 20 25 mph 1010.8mb 59f 59f
6:50pm 7ft 8s 6s 20 25 mph 1011.2mb 59f 59f
5:50pm 7ft 9s 6s 25 29 mph 1011.2mb 59f 58f
4:50pm 6.5ft 9s 6s 25 29 mph 1011.6mb 59f 58f
3:50pm 6.5ft 9s 6s 22 27 mph 1012.1mb 59f 58f
2:50pm 6ft 9s 6s 20 25 mph 1012.7mb 59f 57f
1:50pm 7ft 10s 7s 18 20 mph 1012.8mb 60f 57f
12:50pm 7ft 10s 7s 16 18 mph 1012.8mb 60f 57f
11:50am 6.5ft 10s 6s 18 20 mph 1012.7mb 60f 57f
10:50am 7ft 9s 7s 16 18 mph 1012.6mb 60f 57f
9:50am 7ft 9s 6s 13 16 mph 1012.4mb 60f 57f
8:50am 7ft 9s 6s 18 20 mph 1012mb 60f 57f
7:50am 7ft 9s 6s 18 20 mph 1011.8mb 60f 57f
6:50am 8ft 9s 6s 20 25 mph 1011.1mb 60f 57f
5:50am 8.5ft 9s 7s 20 25 mph 1010.8mb 60f 57f
4:50am 7.5ft 9s 6s 20 25 mph 1010.6mb 60f 57f
3:50am 8ft 8s 6s 18 22 mph 1010.7mb 60f 58f
2:50am 8ft 9s 6s 22 27 mph 1010.3mb 60f 58f
1:50am 7.5ft 9s 6s 20 27 mph 1010.7mb 60f 58f
12:50am 8ft 9s 6s 20 25 mph 1011mb 60f 59f
Thu 07/24 11:50pm 8ft 9s 6s 22 27 mph 1010.8mb 60f 59f
10:50pm 8.5ft 9s 6s 25 31 mph 1010.5mb 60f 59f
9:50pm 8ft 8s 6s 22 27 mph 1010.9mb 60f 59f
8:50pm 8ft 8s 6s 22 29 mph 1010.9mb 60f 59f
7:50pm 8ft 8s 6s 25 29 mph 1010.9mb 60f 59f
6:50pm 8ft 8s 6s 27 31 mph 1011.4mb 61f 59f
5:50pm 7.5ft 8s 6s 22 29 mph 1012mb 61f 60f
4:50pm 7ft 8s 6s 22 25 mph 1012.8mb 61f 60f
3:50pm 7ft 8s 6s 20 25 mph 1013.4mb 61f 59f
2:50pm 7ft 8s 6s 18 22 mph 1014.5mb 60f 59f
1:50pm 7ft 7s 6s 22 25 mph 1014.8mb 60f 59f
12:50pm 6.5ft 8s 6s 22 27 mph 1015.5mb 60f 59f
11:50am 6.5ft 8s 6s 22 25 mph 1016mb 60f 59f
10:50am 6ft 8s 6s 20 22 mph 1016.4mb 60f 59f
9:50am 7ft 7s 6s 18 22 mph 1016.7mb 60f 59f
8:50am 7ft 8s 6s 20 25 mph 1016.6mb 60f 59f
7:50am 7ft 7s 5s 25 29 mph 1016.1mb 60f 59f
6:50am 7ft 7s 6s 25 29 mph 1015.9mb 60f 59f
5:50am 6ft 7s 5s 22 27 mph 1016.1mb 60f 59f
4:50am 6ft 7s 5s 22 27 mph 1016.2mb 60f 59f
3:50am 5ft 6s 5s 22 27 mph 1016.6mb 59f 58f
2:50am 5ft 6s 5s 20 25 mph 1017.3mb 59f 58f
1:50am 5.5ft 6s 5s 20 25 mph 1017.6mb 58f 58f
12:50am 5.5ft 6s 5s 22 29 mph 1017.9mb 58f 58f
Wed 07/23 11:50pm 6ft 6s 5s 29 36 mph 1017.6mb 58f 58f
10:50pm 6ft 6s 5s 27 34 mph 1017.5mb 58f 59f
9:50pm 5.5ft 5s 5s 27 31 mph 1017.5mb 58f 60f
8:50pm 6ft 5s 5s 27 36 mph 1017.4mb 59f 60f
7:50pm 4.5ft 5s 4s 27 31 mph 1017.8mb 60f 60f
6:50pm 3.5ft 4s 4s 25 29 mph 1018.3mb 60f 61f
5:50pm 3ft 10s 5s 20 25 mph 1019mb 61f 61f
4:50pm 2.5ft 10s 5s 13 18 mph 1019.8mb 61f 61f
3:50pm 2.5ft 10s 5s 11 13 mph 1020.5mb 61f 61f
2:50pm 2.5ft 11s 6s 13 16 mph 1020.9mb 61f 61f
1:50pm 2.5ft 10s 6s 11
mph
1021.2mb 61f 61f
12:50pm 2.5ft 9s 7s 9
mph
1021.3mb 61f 61f
11:50am 2.5ft 11s 7s 7
mph
1021.5mb 61f 60f
10:50am 3ft 11s 7s 7 9 mph 1021.5mb 60f 61f
9:50am 2.5ft 11s 7s 4
mph
1020.9mb 61f 62f
8:50am 2.5ft 11s 7s 4
mph
1021mb 61f 61f
7:50am 2.5ft 9s 7s 7
mph
1020.4mb 60f 62f
6:50am 2.5ft 11s 7s 7 9 mph 1019.8mb 60f 61f
5:50am 2.5ft 8s 7s 7 9 mph 1019.6mb 60f 61f
4:50am 2.5ft 9s 7s 4 7 mph 1019.2mb 60f 61f
3:50am 3ft 10s 7s 4
mph
1019.2mb 60f 61f
2:50am 2.5ft 9s 7s 4
mph
1019.6mb 60f 61f
1:50am 2.5ft 11s 7s 2
mph
1019.7mb 61f 61f
12:50am 2.5ft 9s 7s 2
mph
1019.7mb 61f 61f
Tue 07/22 11:50pm 2.5ft 11s 7s 2 4 mph 1019.7mb 61f 60f
10:50pm 2.5ft 10s 7s 2
mph
1019.7mb 61f 60f
9:50pm 2.5ft 11s 7s 4 7 mph 1019.6mb 61f 61f
8:50pm 3.5ft 11s 7s  -  2 mph 1019mb 61f 61f
7:50pm 3ft 11s 7s 2 4 mph 1018.7mb 62f 62f
6:50pm 3ft 11s 8s 4
mph
1018.6mb 62f 62f
5:50pm 3ft 9s 8s 2
mph
1018.7mb 62f 62f
4:50pm 3ft 11s 8s 4
mph
1018.9mb 63f 63f
3:50pm 3.5ft 11s 8s 4
mph
1019.3mb 63f 63f